Time;durP1;ratioP1;P1;durP2;ratioP2;P2;SDS_P1;SDS_P2;PMS_P1;PMS_P2;Temp;Humidity;BMP_temperature;BMP_pressure;BME280_temperature;BME280_humidity;BME280_pressure;Samples;Min_cycle;Max_cycle;Signal;HPM_P1;HPM_P2
2024/02/20 00:01:46;;;;;;;6.27;4.23;;;;;;;;;;772592;180;915471;-62
2024/02/20 00:04:11;;;;;;;5.00;3.47;;;;;;;;;;773214;180;813622;-65
2024/02/20 00:06:38;;;;;;;9.23;3.50;;;;;;;;;;770863;180;820722;-63
2024/02/20 00:09:03;;;;;;;8.37;4.10;;;;;;;;;;774117;180;821804;-62
2024/02/20 00:11:29;;;;;;;5.33;3.70;;;;;;;;;;769341;180;919261;-64
2024/02/20 00:13:55;;;;;;;6.03;4.23;;;;;;;;;;769486;180;916994;-63
2024/02/20 00:16:21;;;;;;;5.50;3.80;;;;;;;;;;769314;180;845403;-64
2024/02/20 00:18:46;;;;;;;6.50;4.60;;;;;;;;;;774588;180;861287;-64
2024/02/20 00:21:12;;;;;;;6.13;3.67;;;;;;;;;;767464;180;919008;-63
2024/02/20 00:23:38;;;;;;;6.32;4.22;;;;;;;;;;767844;180;924496;-62
2024/02/20 00:26:04;;;;;;;6.67;4.17;;;;;;;;;;774000;180;918353;-64
2024/02/20 00:28:30;;;;;;;14.23;5.07;;;;;;;;;;771038;180;919221;-63
2024/02/20 00:30:56;;;;;;;7.10;4.22;;;;;;;;;;770959;180;922203;-62
2024/02/20 00:33:22;;;;;;;5.00;3.93;;;;;;;;;;773046;180;919022;-63
2024/02/20 00:35:48;;;;;;;9.90;4.57;;;;;;;;;;771134;180;896549;-65
2024/02/20 00:38:13;;;;;;;6.07;4.40;;;;;;;;;;772836;180;918910;-64
2024/02/20 00:40:39;;;;;;;7.97;4.33;;;;;;;;;;768207;180;1003864;-64
2024/02/20 00:43:05;;;;;;;6.60;4.50;;;;;;;;;;768976;180;920662;-64
2024/02/20 00:45:31;;;;;;;6.50;4.00;;;;;;;;;;769595;180;918828;-63
2024/02/20 00:47:57;;;;;;;7.27;3.73;;;;;;;;;;765798;179;1126238;-63
2024/02/20 00:50:22;;;;;;;8.03;4.50;;;;;;;;;;775710;180;919555;-63
2024/02/20 00:52:49;;;;;;;10.57;4.97;;;;;;;;;;770923;180;918496;-63
2024/02/20 00:55:14;;;;;;;8.07;3.97;;;;;;;;;;770401;180;1020824;-63
2024/02/20 00:57:40;;;;;;;6.23;4.13;;;;;;;;;;774588;180;920921;-65
2024/02/20 01:00:13;;;;;;;5.40;3.10;;;;;;;;;;770432;180;918526;-63
2024/02/20 01:02:33;;;;;;;6.03;4.10;;;;;;;;;;768338;180;1021365;-63
2024/02/20 01:04:59;;;;;;;6.40;4.10;;;;;;;;;;768647;180;919248;-64
2024/02/20 01:07:24;;;;;;;6.13;4.03;;;;;;;;;;760615;182;918884;-64
2024/02/20 01:09:50;;;;;;;5.10;4.00;;;;;;;;;;768474;180;919344;-63
2024/02/20 01:12:16;;;;;;;13.47;4.67;;;;;;;;;;769030;180;918856;-63
2024/02/20 01:14:44;;;;;;;6.40;4.80;;;;;;;;;;773587;180;888085;-62
2024/02/20 01:17:08;;;;;;;5.50;4.03;;;;;;;;;;767330;180;920384;-63
2024/02/20 01:19:34;;;;;;;8.73;4.20;;;;;;;;;;770666;180;920086;-64
2024/02/20 01:22:00;;;;;;;6.70;3.87;;;;;;;;;;774059;180;918745;-64
2024/02/20 01:24:25;;;;;;;7.43;4.10;;;;;;;;;;771324;180;918335;-63
2024/02/20 01:26:51;;;;;;;4.82;3.47;;;;;;;;;;766367;180;898462;-63
2024/02/20 01:29:21;;;;;;;5.93;4.17;;;;;;;;;;771325;180;816371;-64
2024/02/20 01:31:43;;;;;;;5.67;3.40;;;;;;;;;;768913;180;918943;-65
2024/02/20 01:34:09;;;;;;;6.57;4.07;;;;;;;;;;769605;180;815689;-63
2024/02/20 01:36:34;;;;;;;5.27;4.30;;;;;;;;;;769477;180;918713;-63
2024/02/20 01:39:01;;;;;;;4.80;3.70;;;;;;;;;;775895;180;867469;-65
2024/02/20 01:41:27;;;;;;;5.93;3.23;;;;;;;;;;773825;179;868461;-64
2024/02/20 01:43:52;;;;;;;7.15;3.75;;;;;;;;;;770437;180;918920;-64
2024/02/20 01:46:21;;;;;;;8.07;4.90;;;;;;;;;;776565;180;886147;-63
2024/02/20 01:48:44;;;;;;;7.30;4.20;;;;;;;;;;771563;180;919377;-64
2024/02/20 01:51:10;;;;;;;5.93;3.73;;;;;;;;;;769844;180;921208;-63
2024/02/20 01:53:35;;;;;;;6.10;4.17;;;;;;;;;;774068;180;913664;-64
2024/02/20 01:56:01;;;;;;;8.63;5.10;;;;;;;;;;768207;180;913529;-62
2024/02/20 01:58:27;;;;;;;4.47;3.42;;;;;;;;;;766460;180;912695;-64
2024/02/20 02:00:53;;;;;;;6.70;4.47;;;;;;;;;;768638;180;917616;-64
2024/02/20 02:03:19;;;;;;;11.97;3.53;;;;;;;;;;768555;180;918249;-64
2024/02/20 02:05:45;;;;;;;7.27;4.70;;;;;;;;;;769493;180;927102;-63
2024/02/20 02:08:14;;;;;;;5.70;3.83;;;;;;;;;;767959;180;921745;-62
2024/02/20 02:10:36;;;;;;;5.53;3.90;;;;;;;;;;775039;180;922910;-62
2024/02/20 02:13:02;;;;;;;5.50;3.47;;;;;;;;;;769083;180;988405;-63
2024/02/20 02:15:28;;;;;;;5.80;3.90;;;;;;;;;;777060;180;685107;-63
2024/02/20 02:17:54;;;;;;;5.60;3.63;;;;;;;;;;782381;180;692316;-63
2024/02/20 02:20:20;;;;;;;6.77;3.80;;;;;;;;;;773999;180;825588;-61
2024/02/20 02:22:45;;;;;;;13.83;3.80;;;;;;;;;;770280;180;1014255;-64
2024/02/20 02:25:11;;;;;;;5.35;3.42;;;;;;;;;;770830;180;920793;-65
2024/02/20 02:27:37;;;;;;;5.20;3.70;;;;;;;;;;758826;182;815844;-64
2024/02/20 02:30:05;;;;;;;5.70;3.53;;;;;;;;;;742877;186;911903;-63
2024/02/20 02:32:29;;;;;;;5.87;3.50;;;;;;;;;;743633;185;916563;-63
2024/02/20 02:34:55;;;;;;;5.63;3.13;;;;;;;;;;774058;181;818795;-64
2024/02/20 02:37:21;;;;;;;5.70;4.00;;;;;;;;;;769207;180;915707;-64
2024/02/20 02:39:47;;;;;;;7.77;4.63;;;;;;;;;;770870;180;815135;-64
2024/02/20 02:42:13;;;;;;;8.17;3.20;;;;;;;;;;775710;180;749546;-65
2024/02/20 02:44:38;;;;;;;6.23;4.03;;;;;;;;;;770938;180;917681;-64
2024/02/20 02:47:06;;;;;;;8.77;4.22;;;;;;;;;;769978;180;919801;-64
2024/02/20 02:49:30;;;;;;;7.00;3.70;;;;;;;;;;773810;181;857704;-65
2024/02/20 02:51:56;;;;;;;5.50;3.53;;;;;;;;;;772800;179;832121;-65
2024/02/20 02:54:25;;;;;;;5.13;3.53;;;;;;;;;;774240;180;631763;-65
2024/02/20 02:56:48;;;;;;;5.53;3.67;;;;;;;;;;774579;180;630073;-65
2024/02/20 02:59:13;;;;;;;6.70;3.53;;;;;;;;;;779461;180;626190;-65
2024/02/20 03:01:39;;;;;;;5.70;3.23;;;;;;;;;;771809;180;874519;-64
2024/02/20 03:04:05;;;;;;;6.73;3.87;;;;;;;;;;774755;180;627693;-64
2024/02/20 03:06:31;;;;;;;5.77;4.17;;;;;;;;;;778156;180;818868;-64
2024/02/20 03:08:57;;;;;;;5.40;3.97;;;;;;;;;;771706;180;919575;-63
2024/02/20 03:11:23;;;;;;;7.03;4.40;;;;;;;;;;772035;180;842162;-65
2024/02/20 03:13:49;;;;;;;3.87;2.87;;;;;;;;;;774367;180;917639;-65
2024/02/20 03:16:15;;;;;;;10.50;3.87;;;;;;;;;;768483;180;816000;-65
2024/02/20 03:18:42;;;;;;;4.90;3.70;;;;;;;;;;769881;180;817310;-64
2024/02/20 03:21:06;;;;;;;12.30;5.00;;;;;;;;;;770911;180;816310;-64
2024/02/20 03:23:32;;;;;;;4.87;3.30;;;;;;;;;;769882;180;919106;-64
2024/02/20 03:25:58;;;;;;;6.23;3.80;;;;;;;;;;767709;180;919538;-65
2024/02/20 03:28:24;;;;;;;6.80;4.13;;;;;;;;;;769931;180;816726;-66
2024/02/20 03:30:51;;;;;;;14.43;6.10;;;;;;;;;;776210;180;890074;-65
2024/02/20 03:33:15;;;;;;;6.27;4.00;;;;;;;;;;772172;180;882285;-64
2024/02/20 03:35:42;;;;;;;6.13;3.60;;;;;;;;;;769491;180;899729;-64
2024/02/20 03:38:08;;;;;;;7.67;4.30;;;;;;;;;;769872;180;914569;-64
2024/02/20 03:40:33;;;;;;;7.20;3.80;;;;;;;;;;768722;180;941529;-64
2024/02/20 03:42:59;;;;;;;6.80;4.23;;;;;;;;;;770253;180;867234;-65
2024/02/20 03:45:24;;;;;;;5.47;3.40;;;;;;;;;;768915;180;855817;-64
2024/02/20 03:47:50;;;;;;;9.70;4.30;;;;;;;;;;762155;182;814271;-65
2024/02/20 03:50:16;;;;;;;6.77;4.33;;;;;;;;;;750289;184;921924;-64
2024/02/20 03:52:42;;;;;;;7.00;3.43;;;;;;;;;;770491;180;917804;-64
2024/02/20 03:55:08;;;;;;;5.63;3.60;;;;;;;;;;771404;180;916990;-64
2024/02/20 03:57:34;;;;;;;5.80;3.57;;;;;;;;;;770927;180;880640;-64
2024/02/20 04:00:00;;;;;;;8.47;4.03;;;;;;;;;;767136;180;1010898;-64
2024/02/20 04:02:26;;;;;;;5.17;3.20;;;;;;;;;;774696;180;813596;-63
2024/02/20 04:04:52;;;;;;;5.57;3.40;;;;;;;;;;773547;180;1019071;-64
2024/02/20 04:07:17;;;;;;;5.37;4.20;;;;;;;;;;771701;180;921353;-65
2024/02/20 04:09:43;;;;;;;5.27;3.07;;;;;;;;;;776035;180;817788;-65
2024/02/20 04:12:09;;;;;;;6.03;3.90;;;;;;;;;;770017;180;897055;-64
2024/02/20 04:14:35;;;;;;;6.10;3.77;;;;;;;;;;769381;180;875981;-65
2024/02/20 04:17:00;;;;;;;6.90;3.57;;;;;;;;;;768555;180;907422;-65
2024/02/20 04:19:26;;;;;;;6.37;3.37;;;;;;;;;;778085;180;773234;-64
2024/02/20 04:21:52;;;;;;;5.60;3.80;;;;;;;;;;771665;180;935632;-64
2024/02/20 04:24:18;;;;;;;6.90;3.60;;;;;;;;;;764617;180;951752;-63
2024/02/20 04:26:44;;;;;;;5.80;3.70;;;;;;;;;;776025;180;788068;-65
2024/02/20 04:29:10;;;;;;;6.50;3.77;;;;;;;;;;772850;180;854184;-65
2024/02/20 04:31:35;;;;;;;5.93;3.92;;;;;;;;;;764824;180;916521;-64
2024/02/20 04:34:01;;;;;;;6.10;4.00;;;;;;;;;;773464;180;886291;-64
2024/02/20 04:36:27;;;;;;;7.30;4.57;;;;;;;;;;772966;180;645493;-64
2024/02/20 04:38:56;;;;;;;7.30;4.47;;;;;;;;;;770758;180;916759;-64
2024/02/20 04:41:25;;;;;;;6.63;3.43;;;;;;;;;;768920;180;917914;-63
2024/02/20 04:43:50;;;;;;;5.78;3.50;;;;;;;;;;770677;180;804712;-64
2024/02/20 04:46:16;;;;;;;5.80;3.83;;;;;;;;;;770942;180;920742;-63
2024/02/20 04:48:42;;;;;;;6.67;3.57;;;;;;;;;;771291;180;818221;-65
2024/02/20 04:51:08;;;;;;;6.17;3.37;;;;;;;;;;778084;180;613709;-65
2024/02/20 04:53:34;;;;;;;5.17;3.77;;;;;;;;;;774073;180;627242;-64
2024/02/20 04:56:00;;;;;;;5.40;4.13;;;;;;;;;;774167;180;628766;-65
2024/02/20 04:58:25;;;;;;;6.30;3.27;;;;;;;;;;773541;180;626552;-65
2024/02/20 05:00:51;;;;;;;5.83;3.77;;;;;;;;;;774899;180;628438;-64
2024/02/20 05:03:17;;;;;;;8.17;4.73;;;;;;;;;;772382;180;774563;-64
2024/02/20 05:05:43;;;;;;;6.93;4.20;;;;;;;;;;769862;180;819084;-65
2024/02/20 05:08:09;;;;;;;10.00;4.00;;;;;;;;;;773738;181;932420;-65
2024/02/20 05:10:35;;;;;;;7.15;4.25;;;;;;;;;;772254;180;815982;-64
2024/02/20 05:13:00;;;;;;;10.30;5.10;;;;;;;;;;772243;180;715469;-64
2024/02/20 05:15:26;;;;;;;8.63;4.63;;;;;;;;;;775401;179;849729;-64
2024/02/20 05:17:52;;;;;;;7.53;4.83;;;;;;;;;;776530;180;813230;-64
2024/02/20 05:20:18;;;;;;;6.53;4.67;;;;;;;;;;775021;180;817251;-65
2024/02/20 05:22:44;;;;;;;4.83;3.20;;;;;;;;;;775040;180;654018;-64
2024/02/20 05:25:10;;;;;;;6.57;3.53;;;;;;;;;;771586;180;650026;-63
2024/02/20 05:27:36;;;;;;;4.37;3.10;;;;;;;;;;773124;180;717539;-64
2024/02/20 05:30:03;;;;;;;8.17;3.80;;;;;;;;;;773470;180;630401;-64
2024/02/20 05:32:27;;;;;;;6.37;3.63;;;;;;;;;;774677;180;630621;-64
2024/02/20 05:34:53;;;;;;;9.27;3.73;;;;;;;;;;774036;180;640185;-65
2024/02/20 05:37:19;;;;;;;4.63;3.37;;;;;;;;;;772302;180;812873;-67
2024/02/20 05:39:45;;;;;;;5.87;4.03;;;;;;;;;;779191;180;609306;-64
2024/02/20 05:42:10;;;;;;;6.97;3.93;;;;;;;;;;772481;180;628243;-64
2024/02/20 05:44:37;;;;;;;5.60;3.60;;;;;;;;;;774181;180;619217;-65
2024/02/20 05:47:02;;;;;;;5.10;3.57;;;;;;;;;;776741;180;638715;-64
2024/02/20 05:49:28;;;;;;;5.60;3.60;;;;;;;;;;771872;180;633611;-64
2024/02/20 05:51:54;;;;;;;6.37;3.43;;;;;;;;;;771454;180;713759;-64
2024/02/20 05:54:20;;;;;;;5.97;3.53;;;;;;;;;;773723;180;625745;-65
2024/02/20 05:56:46;;;;;;;6.27;3.80;;;;;;;;;;771815;180;618854;-64
2024/02/20 05:59:11;;;;;;;6.10;4.60;;;;;;;;;;774277;180;616329;-64
2024/02/20 06:01:37;;;;;;;7.30;4.70;;;;;;;;;;773870;180;630623;-64
2024/02/20 06:04:04;;;;;;;6.60;4.00;;;;;;;;;;776796;180;626396;-64
2024/02/20 06:06:29;;;;;;;6.40;4.33;;;;;;;;;;771913;180;917857;-63
2024/02/20 06:08:55;;;;;;;7.37;5.00;;;;;;;;;;768695;180;1013001;-63
2024/02/20 06:11:22;;;;;;;10.20;5.73;;;;;;;;;;773903;180;944073;-64
2024/02/20 06:13:46;;;;;;;8.43;5.00;;;;;;;;;;772662;180;866633;-63
2024/02/20 06:16:12;;;;;;;6.53;4.87;;;;;;;;;;767792;180;920205;-64
2024/02/20 06:18:39;;;;;;;6.78;4.87;;;;;;;;;;773335;180;920599;-63
2024/02/20 06:21:05;;;;;;;6.30;4.70;;;;;;;;;;760937;182;918046;-64
2024/02/20 06:23:31;;;;;;;7.93;5.17;;;;;;;;;;748856;184;931895;-64
2024/02/20 06:25:56;;;;;;;7.75;4.45;;;;;;;;;;748320;184;917497;-64
2024/02/20 06:28:22;;;;;;;7.57;4.30;;;;;;;;;;757844;183;919488;-63
2024/02/20 06:30:48;;;;;;;6.73;4.30;;;;;;;;;;753555;184;919948;-63
2024/02/20 06:33:14;;;;;;;6.20;3.87;;;;;;;;;;751724;184;918674;-63
2024/02/20 06:35:41;;;;;;;6.77;4.20;;;;;;;;;;766547;180;919661;-63
2024/02/20 06:38:06;;;;;;;7.47;4.45;;;;;;;;;;772299;180;869850;-63
2024/02/20 06:40:32;;;;;;;7.30;4.23;;;;;;;;;;771870;180;918267;-64
2024/02/20 06:42:58;;;;;;;7.47;4.23;;;;;;;;;;773471;180;920535;-65
2024/02/20 06:45:24;;;;;;;9.70;4.77;;;;;;;;;;768339;180;915334;-64
2024/02/20 06:47:49;;;;;;;7.23;4.47;;;;;;;;;;770071;180;919323;-64
2024/02/20 06:50:15;;;;;;;7.53;4.97;;;;;;;;;;768813;180;916966;-64
2024/02/20 06:52:43;;;;;;;6.40;3.73;;;;;;;;;;775170;180;917398;-64
2024/02/20 06:55:08;;;;;;;6.33;3.70;;;;;;;;;;770446;180;911744;-65
2024/02/20 06:57:35;;;;;;;10.57;4.37;;;;;;;;;;770497;180;943111;-65
2024/02/20 06:59:59;;;;;;;9.77;4.13;;;;;;;;;;774812;180;856089;-63
2024/02/20 07:02:25;;;;;;;5.73;3.90;;;;;;;;;;770098;180;903006;-64
2024/02/20 07:04:51;;;;;;;11.30;4.10;;;;;;;;;;767101;180;912287;-64
2024/02/20 07:07:17;;;;;;;4.80;3.93;;;;;;;;;;773960;180;848564;-64
2024/02/20 07:09:42;;;;;;;5.93;4.73;;;;;;;;;;767679;180;918462;-63
2024/02/20 07:12:09;;;;;;;12.43;5.93;;;;;;;;;;768787;180;918864;-64
2024/02/20 07:14:34;;;;;;;7.17;4.90;;;;;;;;;;769785;180;816780;-64
2024/02/20 07:17:00;;;;;;;7.33;4.27;;;;;;;;;;775809;180;815488;-64
2024/02/20 07:19:26;;;;;;;6.97;4.53;;;;;;;;;;770143;180;917695;-64
2024/02/20 07:21:52;;;;;;;8.93;4.20;;;;;;;;;;768318;180;929551;-65
2024/02/20 07:24:18;;;;;;;9.80;5.03;;;;;;;;;;773576;180;918526;-64
2024/02/20 07:26:45;;;;;;;7.90;5.20;;;;;;;;;;766794;180;912108;-65
2024/02/20 07:29:10;;;;;;;6.97;4.70;;;;;;;;;;769956;180;816545;-64
2024/02/20 07:31:35;;;;;;;8.97;5.33;;;;;;;;;;773265;180;872867;-64
2024/02/20 07:34:01;;;;;;;8.47;3.83;;;;;;;;;;769068;180;817790;-64
2024/02/20 07:36:27;;;;;;;12.53;4.90;;;;;;;;;;768537;180;917374;-63
2024/02/20 07:38:53;;;;;;;6.90;3.93;;;;;;;;;;771158;179;954918;-64
2024/02/20 07:41:19;;;;;;;8.02;4.78;;;;;;;;;;771299;180;917590;-64
2024/02/20 07:43:45;;;;;;;8.43;4.90;;;;;;;;;;769211;180;918178;-64
2024/02/20 07:46:11;;;;;;;9.80;4.83;;;;;;;;;;766002;180;919331;-64
2024/02/20 07:48:36;;;;;;;5.27;3.83;;;;;;;;;;775484;180;870871;-64
2024/02/20 07:51:02;;;;;;;9.57;4.17;;;;;;;;;;770101;180;910592;-64
2024/02/20 07:53:28;;;;;;;6.10;4.37;;;;;;;;;;770386;180;917011;-64
2024/02/20 07:55:54;;;;;;;6.57;4.77;;;;;;;;;;778323;180;619945;-64
2024/02/20 07:58:20;;;;;;;21.73;4.80;;;;;;;;;;771590;180;920658;-64
2024/02/20 08:00:46;;;;;;;6.80;5.10;;;;;;;;;;774785;180;885783;-62
2024/02/20 08:03:13;;;;;;;11.40;5.28;;;;;;;;;;771724;180;929604;-64
2024/02/20 08:05:37;;;;;;;8.63;5.33;;;;;;;;;;770580;180;921118;-64
2024/02/20 08:08:05;;;;;;;6.17;4.70;;;;;;;;;;768780;180;1022647;-63
2024/02/20 08:10:29;;;;;;;10.73;5.43;;;;;;;;;;770528;180;901531;-64
2024/02/20 08:12:55;;;;;;;9.13;5.23;;;;;;;;;;771946;180;918681;-64
2024/02/20 08:15:21;;;;;;;8.03;5.50;;;;;;;;;;766970;180;918450;-64
2024/02/20 08:17:47;;;;;;;15.40;5.33;;;;;;;;;;769367;180;861945;-64
2024/02/20 08:20:13;;;;;;;10.20;5.37;;;;;;;;;;774861;180;878962;-64
2024/02/20 08:22:40;;;;;;;7.30;4.90;;;;;;;;;;769479;180;946415;-64
2024/02/20 08:25:05;;;;;;;8.17;5.60;;;;;;;;;;768578;180;995967;-64
2024/02/20 08:27:30;;;;;;;9.73;5.83;;;;;;;;;;775530;180;845842;-64
2024/02/20 08:29:56;;;;;;;9.60;5.80;;;;;;;;;;769139;180;919467;-64
2024/02/20 08:32:22;;;;;;;9.90;5.20;;;;;;;;;;768652;180;916315;-64
2024/02/20 08:34:48;;;;;;;8.17;5.57;;;;;;;;;;767573;180;919143;-64
2024/02/20 08:37:14;;;;;;;8.55;4.87;;;;;;;;;;774529;180;927333;-66
2024/02/20 08:39:40;;;;;;;6.80;4.90;;;;;;;;;;768692;180;919822;-65
2024/02/20 08:42:05;;;;;;;11.10;4.65;;;;;;;;;;768983;180;1021504;-64
2024/02/20 08:44:31;;;;;;;8.33;5.20;;;;;;;;;;775394;180;892157;-64
2024/02/20 08:46:57;;;;;;;8.07;5.27;;;;;;;;;;770314;180;919112;-64
2024/02/20 08:49:23;;;;;;;5.73;3.63;;;;;;;;;;769601;180;919948;-64
2024/02/20 08:51:49;;;;;;;7.12;4.50;;;;;;;;;;776160;180;920268;-64
2024/02/20 08:54:15;;;;;;;10.53;4.87;;;;;;;;;;769518;180;918530;-64
2024/02/20 08:56:41;;;;;;;6.60;4.40;;;;;;;;;;770348;180;925203;-64
2024/02/20 08:59:08;;;;;;;7.60;4.60;;;;;;;;;;768851;180;921096;-65
2024/02/20 09:01:32;;;;;;;6.87;3.97;;;;;;;;;;775777;180;818762;-64
2024/02/20 09:03:59;;;;;;;6.10;4.37;;;;;;;;;;772733;180;864880;-64
2024/02/20 09:06:24;;;;;;;10.73;4.60;;;;;;;;;;770878;180;919504;-64
2024/02/20 09:08:50;;;;;;;8.13;4.60;;;;;;;;;;775579;180;919891;-65
2024/02/20 09:11:16;;;;;;;9.83;4.97;;;;;;;;;;771263;180;918872;-63
2024/02/20 09:13:41;;;;;;;14.60;5.33;;;;;;;;;;772512;180;916015;-64
2024/02/20 09:16:07;;;;;;;9.67;4.03;;;;;;;;;;773730;180;872939;-65
2024/02/20 09:18:34;;;;;;;6.53;4.53;;;;;;;;;;768157;180;927443;-63
2024/02/20 09:21:00;;;;;;;7.70;4.97;;;;;;;;;;769637;180;914851;-65
2024/02/20 09:23:26;;;;;;;7.07;4.87;;;;;;;;;;769634;180;818921;-65
2024/02/20 09:25:52;;;;;;;8.30;4.80;;;;;;;;;;768386;180;903169;-63
2024/02/20 09:28:17;;;;;;;8.88;5.05;;;;;;;;;;769159;180;862253;-64
2024/02/20 09:30:43;;;;;;;7.50;4.85;;;;;;;;;;769361;180;950765;-66
2024/02/20 09:33:09;;;;;;;8.73;4.00;;;;;;;;;;777215;180;763185;-64
2024/02/20 09:35:35;;;;;;;7.90;4.47;;;;;;;;;;769564;180;917949;-64
2024/02/20 09:38:01;;;;;;;7.33;4.50;;;;;;;;;;769825;180;910720;-64
2024/02/20 09:40:27;;;;;;;6.90;5.50;;;;;;;;;;774616;180;896026;-64
2024/02/20 09:42:52;;;;;;;8.52;5.22;;;;;;;;;;771401;180;808302;-64
2024/02/20 09:45:19;;;;;;;10.33;4.97;;;;;;;;;;771216;180;851655;-64
2024/02/20 09:47:45;;;;;;;12.17;5.43;;;;;;;;;;773905;180;1018389;-64
2024/02/20 09:50:12;;;;;;;10.97;5.40;;;;;;;;;;757079;182;920825;-64
2024/02/20 09:52:37;;;;;;;8.33;5.60;;;;;;;;;;768074;179;916270;-63
2024/02/20 09:55:03;;;;;;;7.30;4.83;;;;;;;;;;769968;180;883140;-64
2024/02/20 09:57:28;;;;;;;8.00;4.67;;;;;;;;;;775052;180;923825;-64
2024/02/20 09:59:54;;;;;;;9.60;5.37;;;;;;;;;;769168;180;923919;-65
2024/02/20 10:02:20;;;;;;;12.10;5.50;;;;;;;;;;770948;179;919017;-65
2024/02/20 10:04:46;;;;;;;8.20;4.40;;;;;;;;;;776042;179;890658;-64
2024/02/20 10:07:14;;;;;;;6.67;4.27;;;;;;;;;;770358;180;893365;-64
2024/02/20 10:09:38;;;;;;;11.15;5.00;;;;;;;;;;773461;180;814463;-64
2024/02/20 10:12:04;;;;;;;7.53;4.70;;;;;;;;;;775625;180;716035;-63
2024/02/20 10:14:30;;;;;;;6.23;3.90;;;;;;;;;;769967;180;816948;-64
2024/02/20 10:16:57;;;;;;;6.67;4.63;;;;;;;;;;771311;180;948697;-65
2024/02/20 10:19:23;;;;;;;8.73;4.80;;;;;;;;;;769938;180;898090;-64
2024/02/20 10:21:50;;;;;;;8.35;4.45;;;;;;;;;;775000;180;819642;-64
2024/02/20 10:24:16;;;;;;;7.77;4.73;;;;;;;;;;770015;180;918486;-64
2024/02/20 10:26:42;;;;;;;6.00;4.20;;;;;;;;;;769088;180;983992;-64
2024/02/20 10:29:07;;;;;;;8.07;3.80;;;;;;;;;;774310;180;917996;-65
2024/02/20 10:31:33;;;;;;;9.43;4.97;;;;;;;;;;770332;180;916032;-64
2024/02/20 10:33:59;;;;;;;6.63;4.70;;;;;;;;;;770104;180;919322;-64
2024/02/20 10:36:25;;;;;;;9.27;4.70;;;;;;;;;;774052;180;816500;-64
2024/02/20 10:38:51;;;;;;;7.50;4.70;;;;;;;;;;755273;180;917784;-64
2024/02/20 10:41:18;;;;;;;7.40;4.10;;;;;;;;;;766859;180;918048;-64
2024/02/20 10:43:43;;;;;;;6.57;4.80;;;;;;;;;;770850;180;915438;-65
2024/02/20 10:46:09;;;;;;;9.40;4.63;;;;;;;;;;773516;180;863235;-65
2024/02/20 10:48:34;;;;;;;10.10;4.60;;;;;;;;;;768382;180;920935;-65
2024/02/20 10:51:00;;;;;;;9.90;4.90;;;;;;;;;;769488;180;919167;-64
2024/02/20 10:53:26;;;;;;;10.10;5.20;;;;;;;;;;772359;180;761668;-65
2024/02/20 10:55:52;;;;;;;8.00;4.43;;;;;;;;;;769423;180;854970;-64
2024/02/20 10:58:18;;;;;;;8.00;5.40;;;;;;;;;;769090;180;921351;-65
2024/02/20 11:00:46;;;;;;;13.20;4.57;;;;;;;;;;771765;180;812449;-63
2024/02/20 11:03:10;;;;;;;7.20;5.00;;;;;;;;;;764579;180;926174;-63
2024/02/20 11:05:35;;;;;;;7.53;4.07;;;;;;;;;;769918;180;807329;-64
2024/02/20 11:08:04;;;;;;;7.30;4.60;;;;;;;;;;770538;180;920479;-65
2024/02/20 11:10:30;;;;;;;15.67;5.93;;;;;;;;;;770977;180;892252;-66
2024/02/20 11:12:56;;;;;;;11.57;5.17;;;;;;;;;;771340;179;773270;-65
2024/02/20 11:15:22;;;;;;;11.67;5.30;;;;;;;;;;771423;180;852281;-64
2024/02/20 11:17:48;;;;;;;8.93;4.27;;;;;;;;;;776312;180;771205;-65
2024/02/20 11:20:16;;;;;;;11.20;5.40;;;;;;;;;;769999;180;924568;-63
2024/02/20 11:22:42;;;;;;;8.67;4.87;;;;;;;;;;772171;180;917043;-64
2024/02/20 11:25:08;;;;;;;9.40;4.95;;;;;;;;;;772835;180;920350;-64
2024/02/20 11:27:36;;;;;;;10.47;5.37;;;;;;;;;;768949;180;919414;-64
2024/02/20 11:30:10;;;;;;;11.77;5.20;;;;;;;;;;769079;180;1018570;-64
2024/02/20 11:32:36;;;;;;;7.33;4.43;;;;;;;;;;766503;180;922414;-65
2024/02/20 11:35:02;;;;;;;9.93;5.57;;;;;;;;;;772423;180;918088;-63
2024/02/20 11:37:28;;;;;;;9.93;5.40;;;;;;;;;;771408;181;917909;-64
2024/02/20 11:39:55;;;;;;;8.93;4.80;;;;;;;;;;767067;181;914027;-65
2024/02/20 11:42:20;;;;;;;9.40;6.30;;;;;;;;;;768911;180;916063;-64
2024/02/20 11:44:46;;;;;;;9.20;5.10;;;;;;;;;;776709;180;921310;-64
2024/02/20 11:47:11;;;;;;;6.93;4.27;;;;;;;;;;771710;180;918776;-65
2024/02/20 11:49:37;;;;;;;8.43;5.87;;;;;;;;;;768140;180;1021513;-64
2024/02/20 11:52:03;;;;;;;9.07;5.23;;;;;;;;;;770569;180;918441;-64
2024/02/20 11:54:29;;;;;;;9.90;6.30;;;;;;;;;;766491;180;918154;-63
2024/02/20 11:56:55;;;;;;;11.50;5.75;;;;;;;;;;769002;180;901767;-64
2024/02/20 11:59:21;;;;;;;12.00;5.70;;;;;;;;;;775196;180;816365;-65
2024/02/20 12:01:47;;;;;;;9.40;6.30;;;;;;;;;;768595;180;919281;-65
2024/02/20 12:04:12;;;;;;;7.53;5.53;;;;;;;;;;765235;180;918338;-64
2024/02/20 12:06:39;;;;;;;8.57;5.83;;;;;;;;;;770382;180;815924;-63
2024/02/20 12:09:04;;;;;;;11.00;5.90;;;;;;;;;;775172;180;893054;-64
2024/02/20 12:11:30;;;;;;;8.80;5.20;;;;;;;;;;762444;181;918724;-63
2024/02/20 12:13:58;;;;;;;7.77;5.00;;;;;;;;;;768495;180;919606;-64
2024/02/20 12:16:22;;;;;;;11.97;6.70;;;;;;;;;;773942;180;916735;-63
2024/02/20 12:18:48;;;;;;;11.30;6.33;;;;;;;;;;769375;180;922151;-64
2024/02/20 12:21:14;;;;;;;10.67;6.07;;;;;;;;;;771526;180;880395;-63
2024/02/20 12:23:39;;;;;;;12.37;5.60;;;;;;;;;;774572;180;920048;-63
2024/02/20 12:26:06;;;;;;;10.20;5.90;;;;;;;;;;771795;179;920867;-64
2024/02/20 12:28:31;;;;;;;15.53;5.80;;;;;;;;;;772955;180;920086;-64
2024/02/20 12:30:57;;;;;;;7.68;5.60;;;;;;;;;;770618;180;917470;-64
2024/02/20 12:33:23;;;;;;;7.77;5.43;;;;;;;;;;768786;180;911667;-65
2024/02/20 12:35:48;;;;;;;9.87;5.70;;;;;;;;;;767195;180;884188;-64
2024/02/20 12:38:14;;;;;;;9.47;4.67;;;;;;;;;;770884;180;816091;-64
2024/02/20 12:40:40;;;;;;;11.13;5.60;;;;;;;;;;774873;180;917208;-65
2024/02/20 12:43:06;;;;;;;8.23;5.17;;;;;;;;;;770035;180;955206;-63
2024/02/20 12:45:32;;;;;;;9.77;5.07;;;;;;;;;;768402;180;920398;-63
2024/02/20 12:47:58;;;;;;;8.90;6.37;;;;;;;;;;775876;180;921459;-63
2024/02/20 12:50:23;;;;;;;8.80;5.00;;;;;;;;;;769127;180;919580;-63
2024/02/20 12:52:49;;;;;;;10.20;5.73;;;;;;;;;;771153;180;919007;-63
2024/02/20 12:55:15;;;;;;;11.30;6.37;;;;;;;;;;769118;180;918802;-63
2024/02/20 12:57:41;;;;;;;10.63;5.55;;;;;;;;;;768939;180;914867;-63
2024/02/20 13:00:09;;;;;;;9.53;5.60;;;;;;;;;;766680;180;918996;-64
2024/02/20 13:02:34;;;;;;;13.93;6.53;;;;;;;;;;767458;180;918942;-62
2024/02/20 13:05:00;;;;;;;10.40;6.33;;;;;;;;;;775247;180;815753;-63
2024/02/20 13:07:25;;;;;;;9.80;5.83;;;;;;;;;;769879;180;919728;-62
2024/02/20 13:09:51;;;;;;;11.03;7.37;;;;;;;;;;769508;180;921220;-64
2024/02/20 13:12:17;;;;;;;10.67;5.87;;;;;;;;;;773448;181;922243;-64
2024/02/20 13:14:47;;;;;;;9.87;6.20;;;;;;;;;;772533;180;875491;-62
2024/02/20 13:17:09;;;;;;;8.03;5.40;;;;;;;;;;771195;180;920516;-63
2024/02/20 13:19:35;;;;;;;6.87;4.40;;;;;;;;;;769544;180;817900;-64
2024/02/20 13:22:01;;;;;;;9.33;6.40;;;;;;;;;;765590;180;817057;-62
2024/02/20 13:24:26;;;;;;;10.17;5.27;;;;;;;;;;770099;180;919052;-63
2024/02/20 13:26:53;;;;;;;6.33;5.20;;;;;;;;;;769424;180;918448;-63
2024/02/20 13:29:18;;;;;;;7.93;5.60;;;;;;;;;;778203;180;850148;-62
2024/02/20 13:31:44;;;;;;;7.70;4.70;;;;;;;;;;762528;181;919981;-65
2024/02/20 13:34:10;;;;;;;6.70;5.13;;;;;;;;;;764130;180;922505;-63
2024/02/20 13:36:36;;;;;;;8.30;4.73;;;;;;;;;;770673;179;813817;-63
2024/02/20 13:39:02;;;;;;;12.97;5.27;;;;;;;;;;774370;180;816968;-62
2024/02/20 13:41:28;;;;;;;7.37;5.07;;;;;;;;;;772897;180;912243;-62
2024/02/20 13:43:53;;;;;;;6.10;4.70;;;;;;;;;;774694;180;817414;-64
2024/02/20 13:46:19;;;;;;;8.50;5.05;;;;;;;;;;771799;180;919148;-63
2024/02/20 13:48:45;;;;;;;8.10;5.57;;;;;;;;;;770310;180;921922;-62
2024/02/20 13:51:11;;;;;;;11.53;5.17;;;;;;;;;;768501;181;935475;-63
2024/02/20 13:53:36;;;;;;;7.97;4.67;;;;;;;;;;776641;180;900862;-64
2024/02/20 13:56:03;;;;;;;5.33;4.00;;;;;;;;;;771211;180;919680;-63
2024/02/20 13:58:29;;;;;;;5.37;3.47;;;;;;;;;;768703;180;922776;-62
2024/02/20 14:00:54;;;;;;;7.13;4.50;;;;;;;;;;772810;180;1020864;-62
2024/02/20 14:03:20;;;;;;;7.00;4.20;;;;;;;;;;772173;180;921250;-64
2024/02/20 14:05:46;;;;;;;5.00;3.47;;;;;;;;;;769456;180;931571;-63
2024/02/20 14:08:12;;;;;;;4.23;2.80;;;;;;;;;;777380;180;918413;-62
2024/02/20 14:10:37;;;;;;;3.83;2.43;;;;;;;;;;768770;180;901300;-62
2024/02/20 14:13:05;;;;;;;3.83;1.70;;;;;;;;;;770359;180;919103;-64
2024/02/20 14:15:30;;;;;;;3.57;2.43;;;;;;;;;;769528;180;915516;-62
2024/02/20 14:17:55;;;;;;;4.10;2.20;;;;;;;;;;776134;180;856130;-63
2024/02/20 14:20:23;;;;;;;6.03;2.33;;;;;;;;;;768830;180;919477;-63